Time;durP1;ratioP1;P1;durP2;ratioP2;P2;SDS_P1;SDS_P2;PMS_P1;PMS_P2;Temp;Humidity;BMP_temperature;BMP_pressure;BME280_temperature;BME280_humidity;BME280_pressure;Samples;Min_cycle;Max_cycle;Signal;HPM_P1;HPM_P2
2021/07/02 00:01:20;;;;;;;11.27;8.32;;;17.00;99.90;;;16.82;92.65;101405.66;4086595;29;20028;-78
2021/07/02 00:03:21;;;;;;;15.70;10.07;;;17.00;99.90;;;16.89;92.35;101389.78;4119070;28;20035;-78
2021/07/02 00:05:22;;;;;;;11.43;8.75;;;17.10;99.90;;;16.77;93.23;101392.06;4118862;28;20027;-78
2021/07/02 00:07:22;;;;;;;13.77;10.05;;;17.20;99.90;;;16.78;93.66;101392.91;4118667;28;20026;-78
2021/07/02 00:09:23;;;;;;;16.65;11.07;;;17.20;99.90;;;16.75;93.57;101382.59;4102180;28;20047;-79
2021/07/02 00:11:24;;;;;;;15.95;11.10;;;17.10;99.90;;;16.73;93.44;101393.44;4086885;29;20027;-79
2021/07/02 00:13:25;;;;;;;15.32;12.02;;;17.10;99.90;;;16.71;93.43;101389.28;4102619;29;20035;-79
2021/07/02 00:15:26;;;;;;;17.75;12.98;;;17.00;99.90;;;16.64;93.97;101385.69;4102390;29;20059;-78
2021/07/02 00:17:27;;;;;;;17.40;12.93;;;17.00;99.90;;;16.62;93.87;101377.06;4118406;28;20053;-78
2021/07/02 00:19:30;;;;;;;18.17;11.68;;;17.00;99.90;;;16.58;94.62;101393.41;4119809;28;20035;-78
2021/07/02 00:21:32;;;;;;;14.70;11.10;;;16.90;99.90;;;16.63;94.00;101379.56;4086981;29;20084;-78
2021/07/02 00:23:33;;;;;;;15.10;11.93;;;16.90;99.90;;;16.57;94.36;101391.75;4118551;28;20035;-78
2021/07/02 00:25:37;;;;;;;19.42;13.32;;;16.90;99.90;;;16.55;94.63;101387.59;4119600;28;20019;-78
2021/07/02 00:27:39;;;;;;;;;;;16.90;99.90;;;16.47;95.04;101384.97;4120042;28;20031;-78
2021/07/02 00:29:39;;;;;;;20.08;13.85;;;16.90;99.90;;;16.40;95.33;101384.00;4119739;28;19937;-78
2021/07/02 00:31:40;;;;;;;13.50;11.23;;;16.90;99.90;;;16.29;95.80;101376.44;4086424;29;20107;-78
2021/07/02 00:33:41;;;;;;;18.95;11.32;;;16.80;99.90;;;16.27;96.42;101381.97;4086549;29;20384;-78
2021/07/02 00:35:42;;;;;;;22.17;15.73;;;16.70;99.90;;;16.17;96.30;101378.69;4102438;29;20027;-78
2021/07/02 00:37:43;;;;;;;20.52;14.43;;;16.60;99.90;;;16.32;96.18;101384.09;4118538;28;20038;-78
2021/07/02 00:39:44;;;;;;;19.50;12.57;;;16.60;99.90;;;16.30;96.10;101383.44;4118517;28;20425;-78
2021/07/02 00:41:45;;;;;;;20.33;13.30;;;16.60;99.90;;;16.30;96.31;101383.44;4102429;29;20087;-78
2021/07/02 00:43:56;;;;;;;23.48;15.18;;;16.60;99.90;;;16.27;96.02;101387.28;4118412;28;20058;-78
2021/07/02 00:45:57;;;;;;;20.38;14.68;;;16.50;99.90;;;16.20;96.12;101381.00;4102087;29;20130;-78
2021/07/02 00:48:00;;;;;;;25.88;16.27;;;16.50;99.90;;;16.01;97.51;101386.78;4119590;28;20094;-78
2021/07/02 00:50:01;;;;;;;21.55;15.75;;;16.50;99.90;;;15.90;97.65;101365.91;4102314;29;20027;-78
2021/07/02 00:52:05;;;;;;;24.67;17.13;;;16.50;99.90;;;16.01;97.41;101384.94;4101876;29;20039;-78
2021/07/02 00:54:05;;;;;;;21.02;15.55;;;16.50;99.90;;;15.93;97.39;101370.88;4102504;29;20031;-79
2021/07/02 00:56:08;;;;;;;21.23;15.50;;;16.40;99.90;;;15.96;97.35;101379.34;4102385;29;20391;-78
2021/07/02 00:58:09;;;;;;;25.23;16.55;;;16.40;99.90;;;16.00;97.33;101374.50;4102367;28;20102;-78
2021/07/02 01:00:11;;;;;;;21.95;16.17;;;16.40;99.90;;;16.08;97.02;101369.13;4102185;29;20110;-79
2021/07/02 01:02:14;;;;;;;23.25;16.05;;;16.50;99.90;;;16.16;96.36;101377.03;4102186;29;20078;-79
2021/07/02 01:04:14;;;;;;;22.98;16.75;;;16.50;99.90;;;16.03;97.50;101376.81;4118317;28;20459;-78
2021/07/02 01:06:16;;;;;;;20.27;15.35;;;16.50;99.90;;;15.97;97.82;101361.53;4102355;29;20047;-79
2021/07/02 01:08:18;;;;;;;21.05;16.73;;;16.50;99.90;;;16.05;97.70;101370.28;4119596;28;20502;-79
2021/07/02 01:10:19;;;;;;;23.58;17.05;;;16.50;99.90;;;15.93;97.82;101354.91;4119471;28;20103;-79
2021/07/02 01:12:20;;;;;;;21.13;16.75;;;16.40;99.90;;;16.01;97.44;101346.84;4119419;28;20050;-79
2021/07/02 01:14:21;;;;;;;25.20;16.55;;;16.40;99.90;;;15.90;97.94;101355.25;4102108;29;20530;-79
2021/07/02 01:16:22;;;;;;;19.45;16.05;;;16.30;99.90;;;15.89;97.72;101358.91;4101916;29;20423;-79
2021/07/02 01:18:23;;;;;;;21.75;15.73;;;16.30;99.90;;;15.91;97.34;101349.78;4118326;28;20075;-78
2021/07/02 01:20:24;;;;;;;27.25;18.38;;;16.30;99.90;;;15.78;97.48;101348.66;4118218;28;20027;-78
2021/07/02 01:22:27;;;;;;;21.90;15.93;;;16.20;99.90;;;15.83;98.40;101360.44;4105448;29;20041;-78
2021/07/02 01:24:28;;;;;;;21.45;16.42;;;16.20;99.90;;;15.70;98.76;101348.72;4122182;28;20023;-78
2021/07/02 01:26:31;;;;;;;21.65;15.73;;;16.10;99.90;;;15.93;97.29;101354.91;4122588;28;20043;-78
2021/07/02 01:28:32;;;;;;;24.67;18.23;;;16.10;99.90;;;15.93;96.52;101346.91;4089432;29;20024;-78
2021/07/02 01:30:32;;;;;;;23.30;14.75;;;16.10;99.90;;;15.88;97.20;101351.94;4104939;29;20035;-78
2021/07/02 01:32:34;;;;;;;22.33;15.98;;;16.10;99.90;;;15.91;97.76;101355.09;4122245;28;20079;-78
2021/07/02 01:34:35;;;;;;;22.52;16.00;;;16.10;99.90;;;15.94;97.13;101351.25;4089181;29;20076;-78
2021/07/02 01:36:36;;;;;;;20.80;16.33;;;16.20;99.90;;;15.83;97.49;101344.47;4105256;29;20026;-78
2021/07/02 01:38:37;;;;;;;23.92;16.23;;;16.20;99.90;;;15.72;97.98;101330.75;4121142;28;20107;-78
2021/07/02 01:40:38;;;;;;;21.65;17.15;;;16.10;99.90;;;15.90;96.76;101339.28;4122432;28;20023;-78
2021/07/02 01:42:40;;;;;;;21.55;16.27;;;16.20;99.90;;;16.08;96.13;101339.84;4105393;29;20418;-78
2021/07/02 01:44:41;;;;;;;25.35;17.45;;;16.20;99.90;;;16.09;95.56;101353.97;4104938;29;20087;-78
2021/07/02 01:46:42;;;;;;;20.73;14.75;;;16.40;99.90;;;15.96;96.36;101343.91;4122216;28;20518;-78
2021/07/02 01:48:44;;;;;;;24.83;17.80;;;16.30;99.90;;;15.91;96.15;101347.13;4104937;29;20068;-78
2021/07/02 01:50:44;;;;;;;22.40;17.98;;;16.20;99.90;;;15.90;96.19;101341.94;4089327;29;20503;-78
2021/07/02 01:52:45;;;;;;;21.88;15.50;;;16.20;99.90;;;15.82;97.57;101350.81;4104962;29;20067;-78
2021/07/02 01:54:46;;;;;;;22.35;17.88;;;16.20;99.90;;;15.85;96.04;101341.66;4120946;28;20050;-78
2021/07/02 01:56:49;;;;;;;22.20;16.55;;;16.10;99.90;;;15.83;96.41;101346.34;4104764;29;20110;-78
2021/07/02 01:58:50;;;;;;;22.48;16.35;;;16.20;99.90;;;15.87;97.20;101344.97;4089000;29;20644;-79
2021/07/02 02:00:51;;;;;;;24.75;17.38;;;16.10;99.90;;;15.80;96.38;101328.06;4120319;28;20023;-78
2021/07/02 02:02:52;;;;;;;29.17;19.25;;;16.10;99.90;;;15.70;96.88;101312.31;4104783;29;20057;-78
2021/07/02 02:04:54;;;;;;;24.75;16.85;;;16.10;99.90;;;15.83;96.60;101330.38;4121746;28;20050;-78
2021/07/02 02:06:54;;;;;;;26.20;17.70;;;16.10;99.90;;;15.82;96.51;101331.38;4104756;29;20118;-78
2021/07/02 02:08:56;;;;;;;24.52;19.15;;;16.00;99.90;;;15.81;96.38;101330.53;4120645;28;20058;-78
2021/07/02 02:10:57;;;;;;;29.27;18.80;;;16.00;99.90;;;15.66;96.91;101323.47;4088803;29;20099;-78
2021/07/02 02:12:58;;;;;;;25.30;17.25;;;16.00;99.90;;;15.63;97.80;101322.00;4104346;28;20573;-78
2021/07/02 02:14:59;;;;;;;25.17;17.90;;;15.90;99.90;;;15.65;96.53;101321.84;4104405;29;20039;-78
2021/07/02 02:17:00;;;;;;;26.13;18.73;;;15.90;99.90;;;15.65;97.22;101333.28;4120491;28;20058;-78
2021/07/02 02:19:01;;;;;;;27.65;16.30;;;15.90;99.90;;;15.56;97.82;101333.50;4088544;29;20035;-78
2021/07/02 02:21:02;;;;;;;23.10;16.70;;;15.90;99.90;;;15.68;97.36;101330.25;4120433;28;20430;-78
2021/07/02 02:23:03;;;;;;;25.25;17.50;;;15.90;99.90;;;15.75;96.61;101322.41;4104568;29;20035;-78
2021/07/02 02:25:06;;;;;;;23.60;17.08;;;15.90;99.90;;;15.68;96.05;101318.81;4100057;29;20585;-78
2021/07/02 02:27:09;;;;;;;25.20;18.10;;;15.90;99.90;;;15.76;95.64;101322.25;4088482;29;20479;-78
2021/07/02 02:29:10;;;;;;;17.38;14.35;;;16.00;99.90;;;15.57;96.12;101319.19;4121411;28;20031;-78
2021/07/02 02:31:11;;;;;;;27.50;17.33;;;15.90;99.90;;;15.63;96.11;101306.03;4104284;29;20090;-79
2021/07/02 02:33:12;;;;;;;23.48;16.52;;;15.90;99.90;;;15.55;96.29;101310.56;4103227;28;20027;-78
2021/07/02 02:35:13;;;;;;;25.27;18.13;;;15.80;99.90;;;15.63;95.93;101310.50;4104353;29;20027;-78
2021/07/02 02:37:14;;;;;;;25.65;16.92;;;15.90;99.90;;;15.57;95.39;101295.25;4104254;29;20023;-79
2021/07/02 02:39:15;;;;;;;22.60;18.27;;;15.80;99.90;;;15.58;95.61;101313.72;4121558;28;20027;-78
2021/07/02 02:41:16;;;;;;;26.10;18.10;;;15.80;99.90;;;15.62;95.71;101309.69;4104351;29;20035;-79
2021/07/02 02:43:16;;;;;;;23.92;18.10;;;15.90;99.90;;;15.55;96.47;101310.56;4104147;29;20035;-79
2021/07/02 02:45:17;;;;;;;27.17;18.95;;;15.80;99.90;;;15.42;96.22;101298.63;4087820;29;20036;-78
2021/07/02 02:47:18;;;;;;;25.30;17.00;;;15.80;99.90;;;15.34;97.49;101305.81;4121228;28;20038;-78
2021/07/02 02:49:19;;;;;;;23.45;15.70;;;15.70;99.90;;;15.23;98.83;101314.19;4104068;29;20446;-78
2021/07/02 02:51:20;;;;;;;22.55;16.85;;;15.60;99.90;;;15.18;99.58;101312.03;4121226;28;20066;-78
2021/07/02 02:53:21;;;;;;;23.80;17.02;;;15.50;99.90;;;15.02;99.55;101296.16;4103895;29;20031;-78
2021/07/02 02:55:22;;;;;;;27.13;18.83;;;15.50;99.90;;;15.13;99.93;101313.56;4103805;29;20032;-78
2021/07/02 02:57:23;;;;;;;25.10;17.65;;;15.40;99.90;;;15.13;99.47;101290.47;4120106;28;20102;-78
2021/07/02 02:59:24;;;;;;;29.27;19.08;;;15.50;99.90;;;15.40;97.09;101297.16;4121161;28;20027;-78
2021/07/02 03:01:24;;;;;;;28.33;19.35;;;15.50;99.90;;;15.50;96.26;101298.63;4087672;29;20028;-78
2021/07/02 03:03:25;;;;;;;25.75;18.50;;;15.60;99.90;;;15.41;96.50;101296.16;4120051;28;20079;-79
2021/07/02 03:05:26;;;;;;;23.45;17.65;;;15.70;99.90;;;15.45;97.77;101292.97;4119843;28;20480;-79
2021/07/02 03:07:27;;;;;;;24.55;18.08;;;15.70;99.90;;;15.57;96.22;101300.56;4119618;28;20042;-79
2021/07/02 03:09:28;;;;;;;25.27;17.95;;;15.80;99.90;;;15.53;96.35;101286.00;4103681;29;20083;-79
2021/07/02 03:11:29;;;;;;;21.10;15.77;;;15.90;99.90;;;15.43;97.37;101276.38;4087912;29;20088;-79
2021/07/02 03:13:30;;;;;;;25.02;18.20;;;15.80;99.90;;;15.59;96.09;101278.13;4087782;29;20054;-79
2021/07/02 03:15:31;;;;;;;28.77;19.35;;;15.90;99.90;;;15.45;96.38;101277.03;4103587;29;20027;-79
2021/07/02 03:17:32;;;;;;;26.65;18.75;;;15.90;99.90;;;15.51;96.63;101270.19;4106477;28;20491;-79
2021/07/02 03:19:33;;;;;;;30.30;19.27;;;15.90;99.90;;;15.56;95.68;101278.47;4104863;29;20065;-79
2021/07/02 03:21:34;;;;;;;25.98;18.88;;;15.90;99.90;;;15.28;97.43;101275.44;4087733;29;20114;-79
2021/07/02 03:23:35;;;;;;;27.88;18.73;;;15.90;99.90;;;15.06;98.68;101265.56;4087437;29;20114;-79
2021/07/02 03:25:36;;;;;;;29.63;19.77;;;15.80;99.90;;;15.12;98.45;101256.06;4104793;29;20558;-79
2021/07/02 03:27:38;;;;;;;30.60;20.55;;;15.80;99.90;;;15.05;98.66;101263.09;4087575;29;20032;-78
2021/07/02 03:29:39;;;;;;;30.77;20.33;;;15.70;99.90;;;15.03;99.10;101244.66;4087302;29;20060;-79
2021/07/02 03:31:40;;;;;;;25.80;17.30;;;15.60;99.90;;;14.97;99.38;101250.66;4104645;28;20031;-78
2021/07/02 03:33:41;;;;;;;31.75;20.13;;;15.50;99.90;;;14.94;99.35;101251.84;4071702;29;20084;-78
2021/07/02 03:35:42;;;;;;;31.75;21.65;;;15.50;99.90;;;14.88;99.18;101243.72;4087399;29;20044;-78
2021/07/02 03:37:43;;;;;;;31.48;20.75;;;15.40;99.90;;;14.90;99.35;101252.38;4071616;29;20040;-78
2021/07/02 03:39:44;;;;;;;26.52;19.15;;;15.30;99.90;;;14.74;100.00;101249.75;4087471;29;20039;-79
2021/07/02 03:41:45;;;;;;;28.40;20.70;;;15.30;99.90;;;14.84;99.97;101247.75;4087439;29;20103;-79
2021/07/02 03:43:46;;;;;;;30.75;20.63;;;15.20;99.90;;;14.82;99.52;101245.25;4103945;28;20047;-79
2021/07/02 03:45:47;;;;;;;28.15;19.65;;;15.20;99.90;;;14.89;99.29;101242.72;4086667;29;20031;-78
2021/07/02 03:47:48;;;;;;;30.40;20.85;;;15.30;99.90;;;14.89;99.95;101251.53;4103202;29;20043;-78
2021/07/02 03:49:49;;;;;;;31.15;20.75;;;15.30;99.90;;;14.73;100.00;101232.97;4104303;29;20027;-78
2021/07/02 03:51:50;;;;;;;30.70;20.90;;;15.30;99.90;;;14.85;100.00;101241.41;4104281;29;20023;-78
2021/07/02 03:53:51;;;;;;;24.08;18.13;;;15.20;99.90;;;14.90;100.00;101244.41;4087280;29;20043;-78
2021/07/02 03:55:52;;;;;;;29.67;20.65;;;15.30;99.90;;;15.01;99.25;101241.34;4104322;28;20027;-78
2021/07/02 03:57:52;;;;;;;29.67;20.25;;;15.30;99.90;;;14.95;100.00;101240.22;4087267;29;20030;-78
2021/07/02 03:59:53;;;;;;;26.52;18.63;;;15.30;99.90;;;15.01;100.00;101249.31;4086713;29;20083;-78
2021/07/02 04:01:55;;;;;;;26.95;18.67;;;15.30;99.90;;;15.10;99.19;101242.97;4102747;29;20594;-79
2021/07/02 04:03:56;;;;;;;28.17;19.60;;;15.40;99.90;;;14.93;98.94;101231.56;4071244;29;20077;-79
2021/07/02 04:05:57;;;;;;;27.58;18.17;;;15.30;99.90;;;14.90;99.77;101228.47;4087141;29;20024;-79
2021/07/02 04:07:58;;;;;;;26.30;18.50;;;15.30;99.90;;;14.97;98.75;101237.38;4102594;29;20035;-79
2021/07/02 04:09:59;;;;;;;28.33;20.15;;;15.30;99.90;;;15.15;97.24;101237.13;4103054;29;20030;-79
2021/07/02 04:12:01;;;;;;;28.60;20.33;;;15.40;99.90;;;15.09;98.16;101243.97;4086894;29;20031;-79
2021/07/02 04:14:02;;;;;;;26.88;19.02;;;15.40;99.90;;;15.04;99.28;101241.00;4102976;29;20094;-79
2021/07/02 04:16:04;;;;;;;33.03;22.42;;;15.30;99.90;;;14.89;98.29;101237.41;4071786;29;20028;-79
2021/07/02 04:18:07;;;;;;;33.47;19.55;;;15.30;99.90;;;14.81;99.83;101240.91;4102875;29;20098;-79
2021/07/02 04:20:11;;;;;;;28.05;19.05;;;15.30;99.90;;;14.93;99.92;101254.69;4102822;29;20035;-79
2021/07/02 04:22:12;;;;;;;30.35;21.10;;;15.30;99.90;;;14.84;99.61;101242.44;4118642;28;20082;-79
2021/07/02 04:24:13;;;;;;;29.85;20.75;;;15.30;99.90;;;14.99;99.45;101254.00;4081347;29;20024;-79
2021/07/02 04:26:14;;;;;;;33.72;21.77;;;15.30;99.90;;;15.06;97.29;101249.63;4086909;29;20525;-78
2021/07/02 04:28:15;;;;;;;27.98;20.95;;;15.30;99.90;;;14.93;98.49;101252.81;4094784;29;20027;-78
2021/07/02 04:30:17;;;;;;;27.23;19.02;;;15.30;99.90;;;15.09;98.53;101259.06;4086472;29;20039;-78
2021/07/02 04:32:18;;;;;;;26.50;18.95;;;15.40;99.90;;;15.12;97.53;101256.91;4086451;29;20450;-78
2021/07/02 04:34:19;;;;;;;27.85;19.55;;;15.30;99.90;;;15.14;97.27;101270.03;4102871;29;20055;-78
2021/07/02 04:36:20;;;;;;;25.55;17.90;;;15.40;99.90;;;15.04;97.72;101256.94;4118644;28;20057;-78
2021/07/02 04:38:21;;;;;;;29.30;20.60;;;15.40;99.90;;;15.08;96.76;101250.31;4086631;29;20051;-78
2021/07/02 04:40:22;;;;;;;30.45;21.15;;;15.40;99.90;;;15.20;96.05;101261.38;4119638;28;20051;-78
2021/07/02 04:42:23;;;;;;;28.67;18.88;;;15.50;99.90;;;15.35;94.77;101264.97;4086820;29;20032;-78
2021/07/02 04:44:23;;;;;;;28.90;20.60;;;15.50;99.90;;;15.19;95.66;101255.22;4118588;28;20500;-79
2021/07/02 04:46:24;;;;;;;27.58;18.25;;;15.50;99.90;;;15.25;95.77;101259.03;4118433;28;20528;-79
2021/07/02 04:48:25;;;;;;;24.45;18.42;;;15.50;99.90;;;15.33;95.90;101265.13;4086591;29;20119;-79
2021/07/02 04:50:27;;;;;;;32.85;18.77;;;15.50;99.90;;;15.31;96.18;101259.16;4099169;29;20058;-79
2021/07/02 04:52:28;;;;;;;30.70;20.80;;;15.50;99.90;;;15.34;95.50;101255.31;4076894;29;20036;-79
2021/07/02 04:54:29;;;;;;;28.33;17.98;;;15.60;99.90;;;15.31;96.56;101259.16;4102364;29;20494;-79
2021/07/02 04:56:30;;;;;;;29.35;20.50;;;15.60;99.90;;;15.36;96.24;101264.78;4072633;29;20032;-79
2021/07/02 04:58:31;;;;;;;27.55;18.95;;;15.70;99.90;;;15.37;96.28;101269.09;4089766;29;20569;-79
2021/07/02 05:00:32;;;;;;;28.55;19.80;;;15.60;99.90;;;15.40;95.84;101263.44;4089527;29;20032;-79
2021/07/02 05:02:33;;;;;;;26.80;19.42;;;15.60;99.90;;;15.49;94.93;101262.41;4089992;29;20550;-79
2021/07/02 05:04:34;;;;;;;27.65;19.95;;;15.70;99.90;;;15.41;95.60;101270.38;4105623;29;20083;-79
2021/07/02 05:06:40;;;;;;;26.10;19.25;;;15.80;99.90;;;15.35;96.25;101262.31;4106931;29;20074;-79
2021/07/02 05:08:41;;;;;;;26.23;18.70;;;15.80;99.90;;;15.43;96.88;101268.41;4106834;29;20103;-79
2021/07/02 05:10:42;;;;;;;28.33;18.85;;;15.80;99.90;;;15.39;97.07;101264.41;4089728;29;20043;-79
2021/07/02 05:12:43;;;;;;;28.70;19.63;;;15.80;99.90;;;15.44;96.29;101267.38;4089530;29;20609;-79
2021/07/02 05:14:44;;;;;;;30.60;19.42;;;15.90;99.90;;;15.61;94.67;101270.81;4122477;28;20022;-79
2021/07/02 05:16:45;;;;;;;26.58;18.23;;;15.90;99.90;;;15.63;95.36;101271.47;4098788;29;20052;-79
2021/07/02 05:18:46;;;;;;;27.38;18.33;;;16.00;99.90;;;15.63;95.23;101279.44;4105594;29;20023;-79
2021/07/02 05:20:47;;;;;;;24.75;18.60;;;16.00;99.90;;;15.70;93.01;101263.59;4073926;29;20039;-79
2021/07/02 05:22:48;;;;;;;24.92;17.08;;;16.00;99.90;;;15.72;93.53;101272.22;4105513;29;20045;-79
2021/07/02 05:24:50;;;;;;;28.77;19.50;;;16.10;99.90;;;15.77;92.84;101275.22;4089119;29;20091;-79
2021/07/02 05:26:50;;;;;;;29.35;20.10;;;16.20;99.90;;;15.81;93.03;101273.84;4089422;29;20031;-79
2021/07/02 05:28:51;;;;;;;28.55;20.27;;;16.20;99.90;;;15.77;93.85;101281.34;4106418;29;20035;-79
2021/07/02 05:30:52;;;;;;;28.08;18.88;;;16.20;99.90;;;15.66;93.91;101278.25;4088833;29;20032;-79
2021/07/02 05:32:54;;;;;;;27.45;19.00;;;16.20;99.90;;;15.62;94.57;101287.59;4105067;29;20569;-78
2021/07/02 05:34:55;;;;;;;28.33;18.48;;;16.20;99.90;;;15.63;94.29;101275.94;4073573;29;20068;-78
2021/07/02 05:36:55;;;;;;;26.55;18.95;;;16.20;99.90;;;15.62;95.17;101283.09;4105085;29;20118;-79
2021/07/02 05:38:56;;;;;;;23.80;18.15;;;16.20;99.90;;;15.77;93.79;101291.16;4106193;29;20114;-78
2021/07/02 05:40:57;;;;;;;29.15;19.85;;;16.30;99.90;;;15.79;94.07;101294.47;4089367;29;20423;-78
2021/07/02 05:42:58;;;;;;;29.50;20.13;;;16.30;99.90;;;15.75;93.76;101282.53;4105110;29;20027;-78
2021/07/02 05:44:59;;;;;;;27.30;18.55;;;16.30;99.90;;;15.91;94.53;101303.69;4073150;29;20032;-79
2021/07/02 05:47:00;;;;;;;27.85;19.00;;;16.40;99.90;;;15.93;93.78;101289.22;4104962;29;20027;-79
2021/07/02 05:49:03;;;;;;;25.08;18.20;;;16.40;99.90;;;15.91;93.58;101288.56;4104920;29;20631;-78
2021/07/02 05:51:04;;;;;;;30.30;21.17;;;16.40;99.90;;;15.89;92.46;101295.06;4073115;29;20080;-79
2021/07/02 05:53:05;;;;;;;27.88;18.75;;;16.50;99.90;;;16.03;92.19;101296.97;4084249;29;20470;-79
2021/07/02 05:55:07;;;;;;;23.02;17.60;;;16.60;99.90;;;15.98;92.29;101283.34;4104604;29;20027;-78
2021/07/02 05:57:08;;;;;;;29.90;19.75;;;16.60;99.90;;;15.97;91.89;101292.34;4089110;29;20451;-78
2021/07/02 05:59:09;;;;;;;31.30;19.00;;;16.70;99.90;;;15.97;92.52;101295.00;4088936;29;20059;-78
2021/07/02 06:01:10;;;;;;;28.50;18.63;;;16.70;99.90;;;16.00;92.35;101286.69;4088612;29;20027;-78
2021/07/02 06:03:11;;;;;;;27.30;19.73;;;16.80;99.90;;;16.06;93.33;101291.28;4088687;29;20446;-79
2021/07/02 06:05:12;;;;;;;26.60;19.02;;;16.80;99.90;;;15.88;92.76;101288.09;4073233;29;20032;-79
2021/07/02 06:07:13;;;;;;;26.58;19.17;;;16.80;99.90;;;15.99;92.66;101285.84;4088073;29;20487;-79
2021/07/02 06:09:15;;;;;;;26.13;19.30;;;16.80;99.90;;;16.00;93.45;101282.19;4088512;29;20036;-79
2021/07/02 06:11:16;;;;;;;28.85;19.77;;;16.80;99.90;;;16.13;93.34;101291.41;4105787;29;20031;-79
2021/07/02 06:13:17;;;;;;;26.10;18.60;;;16.80;99.90;;;16.17;93.25;101280.22;4088875;29;20035;-79
2021/07/02 06:15:20;;;;;;;28.08;19.02;;;16.90;99.90;;;16.32;93.69;101291.72;4072725;29;20038;-78
2021/07/02 06:17:21;;;;;;;33.50;20.17;;;16.90;99.90;;;16.20;92.02;101289.66;4072823;29;20535;-79
2021/07/02 06:19:22;;;;;;;28.95;19.63;;;17.00;99.90;;;16.36;92.04;101294.88;4105573;29;20035;-79
2021/07/02 06:21:23;;;;;;;27.30;20.35;;;17.10;99.90;;;16.54;91.66;101290.91;4088503;29;20031;-79
2021/07/02 06:23:28;;;;;;;28.25;18.95;;;17.20;99.90;;;16.56;91.00;101291.53;4088746;29;20534;-79
2021/07/02 06:25:29;;;;;;;28.48;19.63;;;17.30;99.90;;;16.11;92.68;101293.41;4072625;29;20028;-79
2021/07/02 06:27:30;;;;;;;29.27;20.15;;;17.30;99.90;;;16.40;92.06;101304.13;4088312;29;20028;-79
2021/07/02 06:29:31;;;;;;;27.67;18.38;;;17.30;99.90;;;16.42;91.79;101304.78;4103949;29;20057;-79
2021/07/02 06:31:32;;;;;;;28.92;19.33;;;17.30;99.90;;;16.56;91.98;101302.19;4105539;29;20027;-79
2021/07/02 06:33:33;;;;;;;29.60;20.50;;;17.40;99.90;;;16.45;90.71;101291.97;4084193;29;20027;-78
2021/07/02 06:35:34;;;;;;;28.73;19.98;;;17.40;99.90;;;16.47;92.54;101303.25;4102571;29;20434;-80
2021/07/02 06:37:35;;;;;;;25.77;17.98;;;17.40;99.90;;;16.52;92.58;101308.84;4070795;29;20104;-79
2021/07/02 06:39:36;;;;;;;28.42;20.08;;;17.40;99.90;;;16.70;91.14;101289.06;4085067;29;20032;-79
2021/07/02 06:41:37;;;;;;;28.38;18.83;;;17.50;99.90;;;16.75;90.94;101292.03;4084802;29;20775;-79
2021/07/02 06:43:38;;;;;;;29.58;20.80;;;17.50;99.90;;;16.76;90.14;101278.50;4101024;29;20035;-79
2021/07/02 06:45:40;;;;;;;27.95;19.05;;;17.60;99.90;;;16.86;90.60;101284.41;4120093;28;20034;-79
2021/07/02 06:47:56;;;;;;;25.33;18.38;;;17.70;99.90;;;16.84;90.45;101274.94;4104006;29;20035;-79
2021/07/02 06:49:57;;;;;;;23.45;18.02;;;17.70;99.90;;;16.84;90.77;101250.97;4088234;29;20031;-79
2021/07/02 06:51:58;;;;;;;32.38;20.63;;;17.70;99.90;;;16.95;89.33;101269.13;4105120;28;20031;-80
2021/07/02 06:54:01;;;;;;;27.35;19.42;;;17.80;99.90;;;17.00;90.07;101258.75;4087827;29;20087;-79
2021/07/02 06:56:03;;;;;;;26.45;18.67;;;17.80;99.90;;;17.06;89.80;101258.84;4104874;29;20032;-79
2021/07/02 06:58:04;;;;;;;25.42;18.02;;;17.80;99.90;;;16.93;90.31;101263.19;4088025;29;20160;-79
2021/07/02 07:00:06;;;;;;;26.63;20.08;;;17.80;99.90;;;16.61;90.71;101272.34;4087793;29;21191;-79
2021/07/02 07:02:12;;;;;;;28.58;21.50;;;17.70;99.90;;;16.62;90.80;101275.84;4105130;28;20030;-80
2021/07/02 07:04:13;;;;;;;27.50;19.25;;;17.60;99.90;;;16.69;91.20;101276.75;4087914;29;20215;-79
2021/07/02 07:06:14;;;;;;;28.27;20.15;;;17.50;99.90;;;16.71;91.25;101269.41;4071862;29;20032;-79
2021/07/02 07:08:15;;;;;;;23.38;17.48;;;17.50;99.90;;;16.72;91.59;101260.41;4088009;29;20031;-80
2021/07/02 07:10:16;;;;;;;23.60;16.63;;;17.50;99.90;;;16.81;91.47;101268.16;4072291;29;20021;-79
2021/07/02 07:12:17;;;;;;;24.67;18.15;;;17.50;99.90;;;16.84;91.32;101264.28;4087867;29;20028;-79
2021/07/02 07:14:18;;;;;;;26.55;18.85;;;17.50;99.90;;;16.91;91.37;101259.84;4103730;29;20035;-79
2021/07/02 07:16:19;;;;;;;23.20;16.92;;;17.50;99.90;;;17.00;91.71;101261.41;4090233;29;20108;-79
2021/07/02 07:18:20;;;;;;;29.27;19.20;;;17.60;99.90;;;17.03;91.31;101259.19;4103234;28;20103;-79
2021/07/02 07:20:22;;;;;;;34.17;20.58;;;17.70;99.90;;;17.00;90.78;101256.91;4102279;29;20027;-79
2021/07/02 07:22:23;;;;;;;27.13;18.30;;;17.90;99.90;;;17.06;90.81;101252.66;4120482;28;20027;-79
2021/07/02 07:24:24;;;;;;;29.38;19.95;;;18.00;99.90;;;17.04;90.28;101271.53;4103076;29;20023;-79
2021/07/02 07:26:25;;;;;;;22.88;18.38;;;18.10;99.90;;;17.04;89.86;101276.03;4103072;29;20542;-79
2021/07/02 07:28:26;;;;;;;25.52;18.52;;;18.10;99.90;;;16.89;91.28;101283.19;4119253;28;20146;-78
2021/07/02 07:30:27;;;;;;;27.88;18.83;;;18.00;99.90;;;16.77;91.33;101280.16;4103159;29;20046;-78
2021/07/02 07:32:28;;;;;;;25.42;17.23;;;17.90;99.90;;;16.94;89.83;101302.13;4103162;29;20031;-78
2021/07/02 07:36:32;;;;;;;24.00;17.23;;;17.90;99.90;;;16.72;91.18;101319.88;4103370;29;20102;-78
2021/07/02 07:38:33;;;;;;;27.05;18.10;;;17.80;99.90;;;16.67;91.67;101330.22;4103257;29;20593;-78
2021/07/02 07:40:34;;;;;;;26.33;18.08;;;17.70;99.90;;;16.72;92.13;101311.88;4119199;28;20106;-78
2021/07/02 07:42:35;;;;;;;24.58;17.55;;;17.60;99.90;;;16.71;91.99;101310.19;4087394;29;20063;-78
2021/07/02 07:44:36;;;;;;;25.00;17.75;;;17.60;99.90;;;16.98;90.87;101311.41;4120130;28;20037;-78
2021/07/02 07:46:37;;;;;;;24.05;16.90;;;17.70;99.90;;;16.76;90.85;101299.81;4087000;29;20526;-79
2021/07/02 07:48:37;;;;;;;26.95;19.25;;;17.70;99.90;;;16.67;91.82;101282.25;4103091;29;20031;-79
2021/07/02 07:50:43;;;;;;;20.52;16.60;;;17.60;99.90;;;16.89;91.01;101284.03;4120165;28;20035;-78
2021/07/02 07:53:00;;;;;;;24.20;17.02;;;17.70;99.90;;;17.08;90.25;101287.97;4111569;28;20130;-78
2021/07/02 07:55:02;;;;;;;23.38;17.13;;;17.80;99.90;;;16.85;90.98;101273.91;4103730;28;20058;-79
2021/07/02 07:57:03;;;;;;;31.13;19.63;;;17.80;99.90;;;17.11;89.59;101277.75;4119948;28;20109;-78
2021/07/02 07:59:04;;;;;;;22.13;15.93;;;17.90;99.90;;;17.19;89.65;101266.19;4103035;29;20031;-79
2021/07/02 08:01:05;;;;;;;24.35;17.45;;;18.10;99.90;;;17.48;89.17;101284.78;4118672;28;20055;-79
2021/07/02 08:03:06;;;;;;;21.73;16.58;;;18.20;99.90;;;17.60;89.47;101279.81;4120204;28;20498;-79
2021/07/02 08:05:07;;;;;;;24.05;17.55;;;18.40;99.90;;;17.72;88.56;101285.47;4102584;29;20434;-79
2021/07/02 08:07:08;;;;;;;22.38;16.48;;;18.60;99.90;;;17.71;89.05;101276.66;4102607;29;20129;-79
2021/07/02 08:09:10;;;;;;;23.70;17.30;;;18.70;99.90;;;17.85;87.57;101281.13;4103093;29;20047;-79
2021/07/02 08:11:12;;;;;;;23.73;17.95;;;18.90;99.90;;;17.92;86.91;101282.00;4118486;28;20066;-79
2021/07/02 08:13:13;;;;;;;23.58;17.70;;;19.10;99.90;;;18.09;83.75;101269.22;4102706;29;20071;-79
2021/07/02 08:15:16;;;;;;;20.75;15.52;;;19.30;99.90;;;18.29;84.81;101290.75;4118287;28;20023;-78
2021/07/02 08:17:17;;;;;;;20.83;15.43;;;19.40;99.90;;;18.39;84.42;101283.25;4118028;28;20127;-79